sensor_id;sensor_type;location;lat;lon;timestamp;P1;durP1;ratioP1;P2;durP2;ratioP2
9801;SDS011;4940;50.900;4.672;2022-09-20T00:01:51;0.95;;;0.80;;
9801;SDS011;4940;50.900;4.672;2022-09-20T00:04:18;2.72;;;1.00;;
9801;SDS011;4940;50.900;4.672;2022-09-20T00:06:46;1.60;;;0.70;;
9801;SDS011;4940;50.900;4.672;2022-09-20T00:09:13;1.10;;;0.90;;
9801;SDS011;4940;50.900;4.672;2022-09-20T00:11:41;1.30;;;0.70;;
9801;SDS011;4940;50.900;4.672;2022-09-20T00:14:10;1.88;;;0.90;;
9801;SDS011;4940;50.900;4.672;2022-09-20T00:16:38;1.10;;;0.60;;
9801;SDS011;4940;50.900;4.672;2022-09-20T00:19:06;2.90;;;0.70;;
9801;SDS011;4940;50.900;4.672;2022-09-20T00:21:34;1.92;;;0.70;;
9801;SDS011;4940;50.900;4.672;2022-09-20T00:24:02;1.98;;;0.80;;
9801;SDS011;4940;50.900;4.672;2022-09-20T00:26:30;1.83;;;0.80;;
9801;SDS011;4940;50.900;4.672;2022-09-20T00:28:57;2.15;;;0.85;;
9801;SDS011;4940;50.900;4.672;2022-09-20T00:31:26;1.80;;;0.98;;
9801;SDS011;4940;50.900;4.672;2022-09-20T00:33:53;2.42;;;0.80;;
9801;SDS011;4940;50.900;4.672;2022-09-20T00:36:38;5.07;;;0.90;;
9801;SDS011;4940;50.900;4.672;2022-09-20T00:39:05;3.13;;;0.80;;
9801;SDS011;4940;50.900;4.672;2022-09-20T00:41:32;3.60;;;1.10;;
9801;SDS011;4940;50.900;4.672;2022-09-20T00:44:00;1.45;;;0.68;;
9801;SDS011;4940;50.900;4.672;2022-09-20T00:46:31;3.90;;;1.10;;
9801;SDS011;4940;50.900;4.672;2022-09-20T00:49:04;4.78;;;0.90;;
9801;SDS011;4940;50.900;4.672;2022-09-20T00:51:39;1.98;;;1.00;;
9801;SDS011;4940;50.900;4.672;2022-09-20T00:54:10;1.00;;;0.73;;
9801;SDS011;4940;50.900;4.672;2022-09-20T00:56:40;5.75;;;1.05;;
9801;SDS011;4940;50.900;4.672;2022-09-20T00:59:09;3.88;;;0.85;;
9801;SDS011;4940;50.900;4.672;2022-09-20T01:01:43;3.90;;;0.80;;
9801;SDS011;4940;50.900;4.672;2022-09-20T01:04:14;5.32;;;0.95;;
9801;SDS011;4940;50.900;4.672;2022-09-20T01:06:46;1.58;;;0.95;;
9801;SDS011;4940;50.900;4.672;2022-09-20T01:09:16;2.22;;;0.90;;
9801;SDS011;4940;50.900;4.672;2022-09-20T01:11:43;4.40;;;0.88;;
9801;SDS011;4940;50.900;4.672;2022-09-20T01:14:11;0.80;;;0.80;;
9801;SDS011;4940;50.900;4.672;2022-09-20T01:16:40;2.70;;;1.15;;
9801;SDS011;4940;50.900;4.672;2022-09-20T01:19:11;5.72;;;1.40;;
9801;SDS011;4940;50.900;4.672;2022-09-20T01:21:44;2.83;;;1.08;;
9801;SDS011;4940;50.900;4.672;2022-09-20T01:24:13;2.55;;;1.50;;
9801;SDS011;4940;50.900;4.672;2022-09-20T01:26:51;2.58;;;1.23;;
9801;SDS011;4940;50.900;4.672;2022-09-20T01:29:41;1.67;;;1.10;;
9801;SDS011;4940;50.900;4.672;2022-09-20T01:32:32;3.17;;;1.65;;
9801;SDS011;4940;50.900;4.672;2022-09-20T01:35:08;3.88;;;1.15;;
9801;SDS011;4940;50.900;4.672;2022-09-20T01:37:41;3.85;;;1.10;;
9801;SDS011;4940;50.900;4.672;2022-09-20T01:40:36;5.47;;;1.50;;
9801;SDS011;4940;50.900;4.672;2022-09-20T01:43:13;5.45;;;1.17;;
9801;SDS011;4940;50.900;4.672;2022-09-20T01:45:47;3.58;;;1.20;;
9801;SDS011;4940;50.900;4.672;2022-09-20T01:48:17;1.38;;;0.90;;
9801;SDS011;4940;50.900;4.672;2022-09-20T01:51:00;1.38;;;1.00;;
9801;SDS011;4940;50.900;4.672;2022-09-20T01:57:11;1.67;;;1.23;;
9801;SDS011;4940;50.900;4.672;2022-09-20T02:00:05;0.85;;;0.85;;
9801;SDS011;4940;50.900;4.672;2022-09-20T02:06:07;9.13;;;1.40;;
9801;SDS011;4940;50.900;4.672;2022-09-20T02:12:13;3.47;;;1.10;;
9801;SDS011;4940;50.900;4.672;2022-09-20T02:15:00;3.72;;;1.25;;
9801;SDS011;4940;50.900;4.672;2022-09-20T02:17:37;6.97;;;1.15;;
9801;SDS011;4940;50.900;4.672;2022-09-20T02:20:29;3.00;;;1.05;;
9801;SDS011;4940;50.900;4.672;2022-09-20T02:23:09;2.78;;;1.25;;
9801;SDS011;4940;50.900;4.672;2022-09-20T02:25:45;2.63;;;1.00;;
9801;SDS011;4940;50.900;4.672;2022-09-20T02:28:30;8.98;;;1.30;;
9801;SDS011;4940;50.900;4.672;2022-09-20T02:31:15;3.08;;;1.35;;
9801;SDS011;4940;50.900;4.672;2022-09-20T02:33:59;2.60;;;1.20;;
9801;SDS011;4940;50.900;4.672;2022-09-20T02:36:45;3.60;;;1.10;;
9801;SDS011;4940;50.900;4.672;2022-09-20T02:39:27;4.28;;;1.13;;
9801;SDS011;4940;50.900;4.672;2022-09-20T02:42:02;2.10;;;1.60;;
9801;SDS011;4940;50.900;4.672;2022-09-20T02:44:39;4.70;;;1.40;;
9801;SDS011;4940;50.900;4.672;2022-09-20T02:47:16;4.15;;;1.70;;
9801;SDS011;4940;50.900;4.672;2022-09-20T02:49:52;5.60;;;1.60;;
9801;SDS011;4940;50.900;4.672;2022-09-20T02:52:27;5.43;;;1.80;;
9801;SDS011;4940;50.900;4.672;2022-09-20T02:55:04;3.30;;;1.23;;
9801;SDS011;4940;50.900;4.672;2022-09-20T02:57:38;2.78;;;1.50;;
9801;SDS011;4940;50.900;4.672;2022-09-20T03:00:12;4.63;;;1.80;;
9801;SDS011;4940;50.900;4.672;2022-09-20T03:02:46;3.78;;;1.50;;
9801;SDS011;4940;50.900;4.672;2022-09-20T03:05:26;4.00;;;1.30;;
9801;SDS011;4940;50.900;4.672;2022-09-20T03:08:03;3.13;;;1.55;;
9801;SDS011;4940;50.900;4.672;2022-09-20T03:10:40;2.63;;;1.67;;
9801;SDS011;4940;50.900;4.672;2022-09-20T03:13:18;2.58;;;1.55;;
9801;SDS011;4940;50.900;4.672;2022-09-20T03:15:54;3.30;;;1.55;;
9801;SDS011;4940;50.900;4.672;2022-09-20T03:18:37;4.72;;;1.67;;
9801;SDS011;4940;50.900;4.672;2022-09-20T03:21:17;2.40;;;1.40;;
9801;SDS011;4940;50.900;4.672;2022-09-20T03:24:04;4.47;;;1.77;;
9801;SDS011;4940;50.900;4.672;2022-09-20T03:26:44;7.43;;;1.77;;
9801;SDS011;4940;50.900;4.672;2022-09-20T03:29:24;3.13;;;1.83;;
9801;SDS011;4940;50.900;4.672;2022-09-20T03:32:04;3.50;;;1.67;;
9801;SDS011;4940;50.900;4.672;2022-09-20T03:34:43;5.00;;;1.85;;
9801;SDS011;4940;50.900;4.672;2022-09-20T03:37:28;2.80;;;1.67;;
9801;SDS011;4940;50.900;4.672;2022-09-20T03:40:26;7.97;;;2.13;;
9801;SDS011;4940;50.900;4.672;2022-09-20T03:43:12;1.92;;;1.52;;
9801;SDS011;4940;50.900;4.672;2022-09-20T03:45:56;2.92;;;1.70;;
9801;SDS011;4940;50.900;4.672;2022-09-20T03:51:37;3.97;;;1.60;;
9801;SDS011;4940;50.900;4.672;2022-09-20T03:54:31;2.85;;;1.85;;
9801;SDS011;4940;50.900;4.672;2022-09-20T03:57:26;2.78;;;1.45;;
9801;SDS011;4940;50.900;4.672;2022-09-20T04:00:13;3.20;;;1.75;;
9801;SDS011;4940;50.900;4.672;2022-09-20T04:05:56;5.90;;;2.20;;
9801;SDS011;4940;50.900;4.672;2022-09-20T04:08:41;4.47;;;1.98;;
9801;SDS011;4940;50.900;4.672;2022-09-20T04:11:18;4.35;;;1.60;;
9801;SDS011;4940;50.900;4.672;2022-09-20T04:13:53;2.58;;;1.70;;
9801;SDS011;4940;50.900;4.672;2022-09-20T04:16:28;7.80;;;1.83;;
9801;SDS011;4940;50.900;4.672;2022-09-20T04:19:08;4.88;;;1.85;;
9801;SDS011;4940;50.900;4.672;2022-09-20T04:21:42;3.33;;;1.70;;
9801;SDS011;4940;50.900;4.672;2022-09-20T04:24:17;2.53;;;1.85;;
9801;SDS011;4940;50.900;4.672;2022-09-20T04:26:48;3.10;;;1.52;;
9801;SDS011;4940;50.900;4.672;2022-09-20T04:29:28;5.22;;;1.90;;
9801;SDS011;4940;50.900;4.672;2022-09-20T04:32:02;2.28;;;1.58;;
9801;SDS011;4940;50.900;4.672;2022-09-20T04:34:38;3.10;;;1.63;;
9801;SDS011;4940;50.900;4.672;2022-09-20T04:37:29;4.57;;;1.25;;
9801;SDS011;4940;50.900;4.672;2022-09-20T04:40:04;6.03;;;1.63;;
9801;SDS011;4940;50.900;4.672;2022-09-20T04:42:47;4.22;;;1.55;;
9801;SDS011;4940;50.900;4.672;2022-09-20T04:46:12;2.85;;;1.52;;
9801;SDS011;4940;50.900;4.672;2022-09-20T04:49:25;6.18;;;2.78;;
9801;SDS011;4940;50.900;4.672;2022-09-20T04:52:18;4.57;;;2.88;;
9801;SDS011;4940;50.900;4.672;2022-09-20T05:01:11;9.23;;;3.22;;
9801;SDS011;4940;50.900;4.672;2022-09-20T05:04:29;5.13;;;3.42;;
9801;SDS011;4940;50.900;4.672;2022-09-20T05:10:47;6.25;;;3.60;;
9801;SDS011;4940;50.900;4.672;2022-09-20T05:14:05;6.47;;;3.33;;
9801;SDS011;4940;50.900;4.672;2022-09-20T05:16:54;6.22;;;3.35;;
9801;SDS011;4940;50.900;4.672;2022-09-20T05:19:33;8.85;;;3.72;;
9801;SDS011;4940;50.900;4.672;2022-09-20T05:25:13;4.75;;;3.65;;
9801;SDS011;4940;50.900;4.672;2022-09-20T05:28:00;5.80;;;3.35;;
9801;SDS011;4940;50.900;4.672;2022-09-20T05:30:33;8.70;;;3.67;;
9801;SDS011;4940;50.900;4.672;2022-09-20T05:33:08;6.32;;;3.45;;
9801;SDS011;4940;50.900;4.672;2022-09-20T05:35:46;6.70;;;3.33;;
9801;SDS011;4940;50.900;4.672;2022-09-20T05:38:23;5.80;;;3.53;;
9801;SDS011;4940;50.900;4.672;2022-09-20T05:41:02;5.70;;;3.85;;
9801;SDS011;4940;50.900;4.672;2022-09-20T05:43:40;7.13;;;3.60;;
9801;SDS011;4940;50.900;4.672;2022-09-20T05:46:15;6.50;;;3.65;;
9801;SDS011;4940;50.900;4.672;2022-09-20T05:48:52;8.77;;;3.60;;
9801;SDS011;4940;50.900;4.672;2022-09-20T05:54:40;3.80;;;3.40;;
9801;SDS011;4940;50.900;4.672;2022-09-20T05:57:23;4.30;;;3.42;;
9801;SDS011;4940;50.900;4.672;2022-09-20T06:00:05;5.10;;;3.40;;
9801;SDS011;4940;50.900;4.672;2022-09-20T06:02:37;10.75;;;4.07;;
9801;SDS011;4940;50.900;4.672;2022-09-20T06:05:13;4.18;;;3.30;;
9801;SDS011;4940;50.900;4.672;2022-09-20T06:07:51;6.13;;;3.35;;
9801;SDS011;4940;50.900;4.672;2022-09-20T06:10:38;5.00;;;3.30;;
9801;SDS011;4940;50.900;4.672;2022-09-20T06:13:22;8.93;;;3.70;;
9801;SDS011;4940;50.900;4.672;2022-09-20T06:16:02;8.90;;;3.72;;
9801;SDS011;4940;50.900;4.672;2022-09-20T06:18:31;6.30;;;3.85;;
9801;SDS011;4940;50.900;4.672;2022-09-20T06:21:06;5.03;;;3.50;;
9801;SDS011;4940;50.900;4.672;2022-09-20T06:23:43;6.30;;;3.10;;
9801;SDS011;4940;50.900;4.672;2022-09-20T06:26:14;4.60;;;3.20;;
9801;SDS011;4940;50.900;4.672;2022-09-20T06:28:45;8.60;;;3.20;;
9801;SDS011;4940;50.900;4.672;2022-09-20T06:31:15;6.68;;;3.55;;
9801;SDS011;4940;50.900;4.672;2022-09-20T06:33:44;5.47;;;3.47;;
9801;SDS011;4940;50.900;4.672;2022-09-20T06:36:17;4.78;;;3.28;;
9801;SDS011;4940;50.900;4.672;2022-09-20T06:39:07;8.50;;;3.70;;
9801;SDS011;4940;50.900;4.672;2022-09-20T06:42:02;8.15;;;3.75;;
9801;SDS011;4940;50.900;4.672;2022-09-20T06:44:30;6.18;;;3.22;;
9801;SDS011;4940;50.900;4.672;2022-09-20T06:46:57;6.50;;;3.20;;
9801;SDS011;4940;50.900;4.672;2022-09-20T06:49:26;6.55;;;3.55;;
9801;SDS011;4940;50.900;4.672;2022-09-20T06:51:53;6.40;;;3.00;;
9801;SDS011;4940;50.900;4.672;2022-09-20T06:54:21;5.97;;;3.20;;
9801;SDS011;4940;50.900;4.672;2022-09-20T06:56:51;3.83;;;3.05;;
9801;SDS011;4940;50.900;4.672;2022-09-20T06:59:20;5.53;;;3.03;;
9801;SDS011;4940;50.900;4.672;2022-09-20T07:01:47;5.50;;;3.40;;
9801;SDS011;4940;50.900;4.672;2022-09-20T07:04:14;6.03;;;2.97;;
9801;SDS011;4940;50.900;4.672;2022-09-20T07:06:42;7.60;;;3.15;;
9801;SDS011;4940;50.900;4.672;2022-09-20T07:09:09;7.07;;;2.95;;
9801;SDS011;4940;50.900;4.672;2022-09-20T07:11:36;5.32;;;3.10;;
9801;SDS011;4940;50.900;4.672;2022-09-20T07:14:04;5.43;;;2.80;;
9801;SDS011;4940;50.900;4.672;2022-09-20T07:16:33;8.93;;;2.92;;
9801;SDS011;4940;50.900;4.672;2022-09-20T07:19:01;4.88;;;3.05;;
9801;SDS011;4940;50.900;4.672;2022-09-20T07:21:29;6.22;;;2.78;;
9801;SDS011;4940;50.900;4.672;2022-09-20T07:23:59;4.75;;;2.55;;
9801;SDS011;4940;50.900;4.672;2022-09-20T07:26:27;5.10;;;2.47;;
9801;SDS011;4940;50.900;4.672;2022-09-20T07:28:56;8.15;;;3.10;;
9801;SDS011;4940;50.900;4.672;2022-09-20T07:31:24;7.07;;;2.22;;
9801;SDS011;4940;50.900;4.672;2022-09-20T07:33:54;3.30;;;2.30;;
9801;SDS011;4940;50.900;4.672;2022-09-20T07:36:22;4.30;;;2.55;;
9801;SDS011;4940;50.900;4.672;2022-09-20T07:38:49;3.53;;;2.28;;
9801;SDS011;4940;50.900;4.672;2022-09-20T07:41:18;4.07;;;2.30;;
9801;SDS011;4940;50.900;4.672;2022-09-20T07:43:47;5.18;;;2.80;;
9801;SDS011;4940;50.900;4.672;2022-09-20T07:46:14;4.80;;;2.70;;
9801;SDS011;4940;50.900;4.672;2022-09-20T07:48:42;4.75;;;2.28;;
9801;SDS011;4940;50.900;4.672;2022-09-20T07:51:11;3.45;;;2.03;;
9801;SDS011;4940;50.900;4.672;2022-09-20T07:53:39;6.78;;;2.60;;
9801;SDS011;4940;50.900;4.672;2022-09-20T07:56:08;3.22;;;2.22;;
9801;SDS011;4940;50.900;4.672;2022-09-20T07:58:37;3.92;;;2.38;;
9801;SDS011;4940;50.900;4.672;2022-09-20T08:01:05;5.50;;;2.70;;
9801;SDS011;4940;50.900;4.672;2022-09-20T08:03:33;7.88;;;2.90;;
9801;SDS011;4940;50.900;4.672;2022-09-20T08:06:02;4.53;;;2.67;;
9801;SDS011;4940;50.900;4.672;2022-09-20T08:08:33;4.15;;;2.72;;
9801;SDS011;4940;50.900;4.672;2022-09-20T08:11:02;3.10;;;2.45;;
9801;SDS011;4940;50.900;4.672;2022-09-20T08:13:30;11.15;;;2.92;;
9801;SDS011;4940;50.900;4.672;2022-09-20T08:16:01;5.30;;;2.88;;
9801;SDS011;4940;50.900;4.672;2022-09-20T08:18:29;7.63;;;2.95;;
9801;SDS011;4940;50.900;4.672;2022-09-20T08:20:57;5.55;;;2.80;;
9801;SDS011;4940;50.900;4.672;2022-09-20T08:23:30;5.65;;;2.65;;
9801;SDS011;4940;50.900;4.672;2022-09-20T08:26:00;3.85;;;2.40;;
9801;SDS011;4940;50.900;4.672;2022-09-20T08:28:28;7.97;;;2.67;;
9801;SDS011;4940;50.900;4.672;2022-09-20T08:30:59;7.80;;;2.40;;
9801;SDS011;4940;50.900;4.672;2022-09-20T08:33:27;8.75;;;2.78;;
9801;SDS011;4940;50.900;4.672;2022-09-20T08:35:55;5.10;;;2.45;;
9801;SDS011;4940;50.900;4.672;2022-09-20T08:38:23;6.97;;;2.90;;
9801;SDS011;4940;50.900;4.672;2022-09-20T08:40:54;6.63;;;2.53;;
9801;SDS011;4940;50.900;4.672;2022-09-20T08:43:23;7.20;;;2.47;;
9801;SDS011;4940;50.900;4.672;2022-09-20T08:45:55;3.90;;;2.53;;
9801;SDS011;4940;50.900;4.672;2022-09-20T08:48:26;7.50;;;2.75;;
9801;SDS011;4940;50.900;4.672;2022-09-20T08:50:56;6.75;;;2.97;;
9801;SDS011;4940;50.900;4.672;2022-09-20T08:53:24;8.18;;;3.15;;
9801;SDS011;4940;50.900;4.672;2022-09-20T08:55:54;6.72;;;3.10;;
9801;SDS011;4940;50.900;4.672;2022-09-20T08:58:23;7.20;;;3.25;;
9801;SDS011;4940;50.900;4.672;2022-09-20T09:00:51;6.07;;;2.75;;
9801;SDS011;4940;50.900;4.672;2022-09-20T09:03:19;11.10;;;2.97;;
9801;SDS011;4940;50.900;4.672;2022-09-20T09:05:47;7.13;;;3.03;;
9801;SDS011;4940;50.900;4.672;2022-09-20T09:08:16;4.70;;;3.00;;
9801;SDS011;4940;50.900;4.672;2022-09-20T09:10:46;7.10;;;3.10;;
9801;SDS011;4940;50.900;4.672;2022-09-20T09:13:24;8.32;;;3.20;;
9801;SDS011;4940;50.900;4.672;2022-09-20T09:15:57;8.07;;;3.33;;
9801;SDS011;4940;50.900;4.672;2022-09-20T09:18:29;5.63;;;3.00;;
9801;SDS011;4940;50.900;4.672;2022-09-20T09:20:59;4.28;;;2.60;;
9801;SDS011;4940;50.900;4.672;2022-09-20T09:23:29;5.40;;;2.90;;
9801;SDS011;4940;50.900;4.672;2022-09-20T09:26:02;4.65;;;2.75;;
9801;SDS011;4940;50.900;4.672;2022-09-20T09:28:32;6.13;;;2.70;;
9801;SDS011;4940;50.900;4.672;2022-09-20T09:31:11;7.20;;;2.78;;
9801;SDS011;4940;50.900;4.672;2022-09-20T09:33:46;7.65;;;2.72;;
9801;SDS011;4940;50.900;4.672;2022-09-20T09:36:14;5.53;;;2.80;;
9801;SDS011;4940;50.900;4.672;2022-09-20T09:38:46;6.80;;;2.60;;
9801;SDS011;4940;50.900;4.672;2022-09-20T09:41:21;5.00;;;2.85;;
9801;SDS011;4940;50.900;4.672;2022-09-20T09:43:58;8.68;;;2.42;;
9801;SDS011;4940;50.900;4.672;2022-09-20T09:46:29;4.10;;;2.25;;
9801;SDS011;4940;50.900;4.672;2022-09-20T09:49:05;9.52;;;2.33;;
9801;SDS011;4940;50.900;4.672;2022-09-20T09:51:34;4.35;;;2.22;;
9801;SDS011;4940;50.900;4.672;2022-09-20T09:54:03;6.15;;;2.40;;
9801;SDS011;4940;50.900;4.672;2022-09-20T09:56:35;5.93;;;2.25;;
9801;SDS011;4940;50.900;4.672;2022-09-20T09:59:21;4.07;;;2.58;;
9801;SDS011;4940;50.900;4.672;2022-09-20T10:01:59;7.55;;;1.88;;
9801;SDS011;4940;50.900;4.672;2022-09-20T10:04:39;8.80;;;2.88;;
9801;SDS011;4940;50.900;4.672;2022-09-20T10:07:14;7.28;;;2.58;;
9801;SDS011;4940;50.900;4.672;2022-09-20T10:10:00;4.43;;;2.38;;
9801;SDS011;4940;50.900;4.672;2022-09-20T10:12:38;6.18;;;2.30;;
9801;SDS011;4940;50.900;4.672;2022-09-20T10:15:17;5.25;;;2.22;;
9801;SDS011;4940;50.900;4.672;2022-09-20T10:17:56;6.05;;;2.20;;
9801;SDS011;4940;50.900;4.672;2022-09-20T10:20:45;7.25;;;2.10;;
9801;SDS011;4940;50.900;4.672;2022-09-20T10:23:26;7.40;;;2.30;;
9801;SDS011;4940;50.900;4.672;2022-09-20T10:26:08;5.68;;;2.15;;
9801;SDS011;4940;50.900;4.672;2022-09-20T10:28:47;5.90;;;2.20;;
9801;SDS011;4940;50.900;4.672;2022-09-20T10:31:31;3.85;;;2.08;;
9801;SDS011;4940;50.900;4.672;2022-09-20T10:34:22;4.75;;;2.13;;
9801;SDS011;4940;50.900;4.672;2022-09-20T10:37:09;4.68;;;1.77;;
9801;SDS011;4940;50.900;4.672;2022-09-20T10:39:40;4.07;;;2.22;;
9801;SDS011;4940;50.900;4.672;2022-09-20T10:42:26;4.45;;;1.92;;
9801;SDS011;4940;50.900;4.672;2022-09-20T10:45:18;6.15;;;2.20;;
9801;SDS011;4940;50.900;4.672;2022-09-20T10:47:54;5.40;;;2.35;;
9801;SDS011;4940;50.900;4.672;2022-09-20T10:50:29;2.72;;;1.80;;
9801;SDS011;4940;50.900;4.672;2022-09-20T10:53:07;3.33;;;2.05;;
9801;SDS011;4940;50.900;4.672;2022-09-20T10:55:49;2.75;;;1.98;;
9801;SDS011;4940;50.900;4.672;2022-09-20T10:58:43;3.15;;;1.88;;
9801;SDS011;4940;50.900;4.672;2022-09-20T11:01:27;7.43;;;1.88;;
9801;SDS011;4940;50.900;4.672;2022-09-20T11:04:10;4.45;;;1.83;;
9801;SDS011;4940;50.900;4.672;2022-09-20T11:06:54;5.32;;;1.88;;
9801;SDS011;4940;50.900;4.672;2022-09-20T11:09:28;4.22;;;1.73;;
9801;SDS011;4940;50.900;4.672;2022-09-20T11:12:00;3.47;;;1.63;;
9801;SDS011;4940;50.900;4.672;2022-09-20T11:14:37;5.97;;;2.00;;
9801;SDS011;4940;50.900;4.672;2022-09-20T11:17:10;4.65;;;1.85;;
9801;SDS011;4940;50.900;4.672;2022-09-20T11:19:45;5.70;;;1.95;;
9801;SDS011;4940;50.900;4.672;2022-09-20T11:22:17;3.80;;;1.50;;
9801;SDS011;4940;50.900;4.672;2022-09-20T11:24:48;9.65;;;1.77;;
9801;SDS011;4940;50.900;4.672;2022-09-20T11:27:21;3.15;;;1.20;;
9801;SDS011;4940;50.900;4.672;2022-09-20T11:29:54;4.45;;;1.27;;
9801;SDS011;4940;50.900;4.672;2022-09-20T11:32:28;3.60;;;1.20;;
9801;SDS011;4940;50.900;4.672;2022-09-20T11:35:00;3.97;;;1.42;;
9801;SDS011;4940;50.900;4.672;2022-09-20T11:37:32;2.28;;;1.27;;
9801;SDS011;4940;50.900;4.672;2022-09-20T11:40:07;4.13;;;1.10;;
9801;SDS011;4940;50.900;4.672;2022-09-20T11:42:43;2.65;;;1.92;;
9801;SDS011;4940;50.900;4.672;2022-09-20T11:45:12;2.85;;;1.23;;
9801;SDS011;4940;50.900;4.672;2022-09-20T11:47:40;1.80;;;1.05;;
9801;SDS011;4940;50.900;4.672;2022-09-20T11:50:24;2.75;;;1.10;;
9801;SDS011;4940;50.900;4.672;2022-09-20T11:53:20;4.22;;;1.10;;
9801;SDS011;4940;50.900;4.672;2022-09-20T11:55:59;2.80;;;1.35;;
9801;SDS011;4940;50.900;4.672;2022-09-20T11:58:39;2.90;;;1.38;;
9801;SDS011;4940;50.900;4.672;2022-09-20T12:01:13;5.28;;;1.33;;
9801;SDS011;4940;50.900;4.672;2022-09-20T12:03:43;1.70;;;0.93;;
9801;SDS011;4940;50.900;4.672;2022-09-20T12:06:28;3.20;;;1.35;;
9801;SDS011;4940;50.900;4.672;2022-09-20T12:08:58;3.53;;;1.00;;
9801;SDS011;4940;50.900;4.672;2022-09-20T12:11:29;2.17;;;1.23;;
9801;SDS011;4940;50.900;4.672;2022-09-20T12:14:00;1.65;;;1.30;;
9801;SDS011;4940;50.900;4.672;2022-09-20T12:16:39;1.42;;;1.10;;
9801;SDS011;4940;50.900;4.672;2022-09-20T12:19:09;2.33;;;1.20;;
9801;SDS011;4940;50.900;4.672;2022-09-20T12:27:55;2.33;;;1.10;;
9801;SDS011;4940;50.900;4.672;2022-09-20T12:30:23;3.08;;;0.98;;
9801;SDS011;4940;50.900;4.672;2022-09-20T12:32:51;3.97;;;1.23;;
9801;SDS011;4940;50.900;4.672;2022-09-20T12:38:54;4.15;;;1.45;;
9801;SDS011;4940;50.900;4.672;2022-09-20T12:41:27;1.20;;;1.00;;
9801;SDS011;4940;50.900;4.672;2022-09-20T12:44:21;2.00;;;1.00;;
9801;SDS011;4940;50.900;4.672;2022-09-20T12:46:51;3.78;;;0.85;;
9801;SDS011;4940;50.900;4.672;2022-09-20T12:55:29;2.58;;;0.95;;
9801;SDS011;4940;50.900;4.672;2022-09-20T12:58:03;3.20;;;1.38;;
9801;SDS011;4940;50.900;4.672;2022-09-20T13:00:36;3.72;;;1.00;;
9801;SDS011;4940;50.900;4.672;2022-09-20T13:08:52;3.28;;;1.10;;
9801;SDS011;4940;50.900;4.672;2022-09-20T13:11:32;2.55;;;1.10;;
9801;SDS011;4940;50.900;4.672;2022-09-20T13:14:05;3.58;;;0.90;;
9801;SDS011;4940;50.900;4.672;2022-09-20T13:16:43;4.65;;;1.20;;
9801;SDS011;4940;50.900;4.672;2022-09-20T13:19:15;1.45;;;0.85;;
9801;SDS011;4940;50.900;4.672;2022-09-20T13:21:48;0.80;;;0.80;;
9801;SDS011;4940;50.900;4.672;2022-09-20T13:24:19;5.15;;;1.10;;
9801;SDS011;4940;50.900;4.672;2022-09-20T13:26:51;2.85;;;1.20;;
9801;SDS011;4940;50.900;4.672;2022-09-20T13:29:21;2.38;;;0.88;;
9801;SDS011;4940;50.900;4.672;2022-09-20T13:31:54;1.55;;;0.80;;
9801;SDS011;4940;50.900;4.672;2022-09-20T13:34:23;2.15;;;0.68;;
9801;SDS011;4940;50.900;4.672;2022-09-20T13:36:51;2.95;;;0.70;;
9801;SDS011;4940;50.900;4.672;2022-09-20T13:39:25;1.67;;;0.88;;
9801;SDS011;4940;50.900;4.672;2022-09-20T13:42:00;1.63;;;1.08;;
9801;SDS011;4940;50.900;4.672;2022-09-20T13:44:31;3.40;;;1.10;;
9801;SDS011;4940;50.900;4.672;2022-09-20T13:47:01;1.35;;;1.00;;
9801;SDS011;4940;50.900;4.672;2022-09-20T13:49:46;3.47;;;1.30;;
9801;SDS011;4940;50.900;4.672;2022-09-20T13:52:19;3.38;;;1.10;;
9801;SDS011;4940;50.900;4.672;2022-09-20T13:54:49;1.95;;;1.35;;
9801;SDS011;4940;50.900;4.672;2022-09-20T13:57:19;2.90;;;1.73;;
9801;SDS011;4940;50.900;4.672;2022-09-20T13:59:48;3.72;;;1.13;;
9801;SDS011;4940;50.900;4.672;2022-09-20T14:02:19;2.42;;;1.38;;
9801;SDS011;4940;50.900;4.672;2022-09-20T14:04:49;2.03;;;1.13;;
9801;SDS011;4940;50.900;4.672;2022-09-20T14:07:19;2.67;;;1.23;;
9801;SDS011;4940;50.900;4.672;2022-09-20T14:09:50;1.33;;;1.10;;
9801;SDS011;4940;50.900;4.672;2022-09-20T14:12:19;3.42;;;1.20;;
9801;SDS011;4940;50.900;4.672;2022-09-20T14:14:48;3.75;;;1.58;;
9801;SDS011;4940;50.900;4.672;2022-09-20T14:17:17;3.17;;;1.48;;
9801;SDS011;4940;50.900;4.672;2022-09-20T14:19:48;4.30;;;1.50;;
9801;SDS011;4940;50.900;4.672;2022-09-20T14:22:19;2.40;;;1.70;;
9801;SDS011;4940;50.900;4.672;2022-09-20T14:24:58;3.95;;;1.75;;
9801;SDS011;4940;50.900;4.672;2022-09-20T14:27:28;5.57;;;1.50;;
9801;SDS011;4940;50.900;4.672;2022-09-20T14:29:55;5.18;;;1.90;;
9801;SDS011;4940;50.900;4.672;2022-09-20T14:32:24;3.33;;;1.80;;
9801;SDS011;4940;50.900;4.672;2022-09-20T14:35:05;4.82;;;1.83;;
9801;SDS011;4940;50.900;4.672;2022-09-20T14:37:40;3.53;;;1.92;;
9801;SDS011;4940;50.900;4.672;2022-09-20T14:40:15;2.55;;;1.50;;
9801;SDS011;4940;50.900;4.672;2022-09-20T14:42:55;6.45;;;1.52;;
9801;SDS011;4940;50.900;4.672;2022-09-20T14:45:24;3.90;;;1.20;;
9801;SDS011;4940;50.900;4.672;2022-09-20T14:47:55;3.45;;;1.70;;
9801;SDS011;4940;50.900;4.672;2022-09-20T14:50:26;4.47;;;2.15;;
9801;SDS011;4940;50.900;4.672;2022-09-20T14:53:03;18.15;;;5.45;;
9801;SDS011;4940;50.900;4.672;2022-09-20T14:55:32;2.08;;;1.35;;
9801;SDS011;4940;50.900;4.672;2022-09-20T14:58:03;41.50;;;9.73;;
9801;SDS011;4940;50.900;4.672;2022-09-20T15:00:45;6.45;;;1.27;;
9801;SDS011;4940;50.900;4.672;2022-09-20T15:03:14;3.40;;;1.42;;
9801;SDS011;4940;50.900;4.672;2022-09-20T15:05:46;7.30;;;2.55;;
9801;SDS011;4940;50.900;4.672;2022-09-20T15:08:15;3.28;;;1.38;;
9801;SDS011;4940;50.900;4.672;2022-09-20T15:10:44;3.80;;;1.38;;
9801;SDS011;4940;50.900;4.672;2022-09-20T15:13:13;9.75;;;3.05;;
9801;SDS011;4940;50.900;4.672;2022-09-20T15:15:41;3.28;;;1.10;;
9801;SDS011;4940;50.900;4.672;2022-09-20T15:18:14;4.63;;;0.95;;
9801;SDS011;4940;50.900;4.672;2022-09-20T15:20:45;4.93;;;1.45;;
9801;SDS011;4940;50.900;4.672;2022-09-20T15:23:13;2.92;;;0.90;;
9801;SDS011;4940;50.900;4.672;2022-09-20T15:25:40;3.08;;;1.10;;
9801;SDS011;4940;50.900;4.672;2022-09-20T15:28:09;3.08;;;0.93;;
9801;SDS011;4940;50.900;4.672;2022-09-20T15:30:42;2.15;;;1.13;;
9801;SDS011;4940;50.900;4.672;2022-09-20T15:33:10;6.05;;;1.20;;
9801;SDS011;4940;50.900;4.672;2022-09-20T15:35:38;3.28;;;0.95;;
9801;SDS011;4940;50.900;4.672;2022-09-20T15:38:05;6.65;;;1.00;;
9801;SDS011;4940;50.900;4.672;2022-09-20T15:40:35;3.53;;;0.95;;
9801;SDS011;4940;50.900;4.672;2022-09-20T15:43:04;3.67;;;1.00;;
9801;SDS011;4940;50.900;4.672;2022-09-20T15:45:34;2.78;;;0.90;;
9801;SDS011;4940;50.900;4.672;2022-09-20T15:48:02;3.92;;;1.00;;
9801;SDS011;4940;50.900;4.672;2022-09-20T15:50:29;2.95;;;0.90;;
9801;SDS011;4940;50.900;4.672;2022-09-20T15:52:57;2.17;;;1.27;;
9801;SDS011;4940;50.900;4.672;2022-09-20T15:55:25;4.55;;;1.48;;
9801;SDS011;4940;50.900;4.672;2022-09-20T15:57:52;4.22;;;1.30;;
9801;SDS011;4940;50.900;4.672;2022-09-20T16:00:19;2.53;;;1.02;;
9801;SDS011;4940;50.900;4.672;2022-09-20T16:02:48;1.63;;;0.90;;
9801;SDS011;4940;50.900;4.672;2022-09-20T16:05:15;4.95;;;1.10;;
9801;SDS011;4940;50.900;4.672;2022-09-20T16:07:43;3.28;;;1.40;;
9801;SDS011;4940;50.900;4.672;2022-09-20T16:10:11;1.92;;;1.08;;
9801;SDS011;4940;50.900;4.672;2022-09-20T16:12:38;2.10;;;1.25;;
9801;SDS011;4940;50.900;4.672;2022-09-20T16:15:06;3.30;;;1.10;;
9801;SDS011;4940;50.900;4.672;2022-09-20T16:17:34;1.20;;;1.10;;
9801;SDS011;4940;50.900;4.672;2022-09-20T16:20:20;2.53;;;1.20;;
9801;SDS011;4940;50.900;4.672;2022-09-20T16:22:47;4.68;;;1.33;;
9801;SDS011;4940;50.900;4.672;2022-09-20T16:25:15;2.53;;;1.10;;
9801;SDS011;4940;50.900;4.672;2022-09-20T16:27:42;2.38;;;1.05;;
9801;SDS011;4940;50.900;4.672;2022-09-20T16:30:09;3.22;;;1.25;;
9801;SDS011;4940;50.900;4.672;2022-09-20T16:32:37;2.75;;;1.30;;
9801;SDS011;4940;50.900;4.672;2022-09-20T16:35:05;3.35;;;1.40;;
9801;SDS011;4940;50.900;4.672;2022-09-20T16:37:34;2.92;;;1.05;;
9801;SDS011;4940;50.900;4.672;2022-09-20T16:40:03;3.53;;;1.25;;
9801;SDS011;4940;50.900;4.672;2022-09-20T16:42:31;3.72;;;1.73;;
9801;SDS011;4940;50.900;4.672;2022-09-20T16:44:58;1.70;;;1.20;;
9801;SDS011;4940;50.900;4.672;2022-09-20T16:47:25;3.20;;;1.20;;
9801;SDS011;4940;50.900;4.672;2022-09-20T16:49:53;1.83;;;1.10;;
9801;SDS011;4940;50.900;4.672;2022-09-20T16:52:21;1.63;;;1.05;;
9801;SDS011;4940;50.900;4.672;2022-09-20T16:54:51;1.50;;;1.10;;